Details From MNMG - Managua Intl
To MGPB - PUERTO BARRIOS
Flight Number -
Tags generated
Created
Modified
Stats Distance 264 nm / 489 km
Max Altitude 32,100 ft / 9,784 m
Waypoints 6
Social Downloads 0
Likes 0
Share VATSIM

Download

Looking for another format? Having issues loading an existing format? Contact us
Advertisement - Login to hide

Notes

Basic altitude profile: - Ascent Rate: 2000ft/min - Ascent Speed: 100kts - Cruise Altitude: 8000ft - Cruise Speed: 185kts - Descent Rate: 500ft/min - Descent Speed: 185kts Options: - Use NATs: no - Use PACOTS: no - Use low airways: no - Use high airways: yes

Route

MNMG BERTA UA502 TNT UB753 ROMBO MGPB

ID Type Via Altitude Latitude Longitude Leg Dist Tot Dist Heading (true) Name
O MNMG APT - 0 ft / 0 m 12.14149˚ -86.16818˚ - 0 nm - Managua Intl
BERTA FIX - 20,400 ft / 6,218 m 12.95000˚ -86.77333˚ 60 nm 60 nm 324° / 324° -
LIBIS FIX UA502 (AWY-HI) 32,100 ft / 9,784 m 13.61333˚ -87.26667˚ 49 nm 109 nm 324° / 324° -
TNT VOR UA502 (AWY-HI) 27,800 ft / 8,473 m 14.02889˚ -87.22917˚ 25 nm 134 nm 5° / 5° TONCONTIN VOR-DME
ROMBO FIX UB753 (AWY-HI) 22,400 ft / 6,828 m 14.40833˚ -87.40667˚ 25 nm 159 nm 336° / 336° -
O MGPB APT - 0 ft / 0 m 15.73087˚ -88.58377˚ 104 nm 264 nm 319° / 319° PUERTO BARRIOS

Altitude Profile

Advertisement - Login to hide

Weather


0- 5 10 15 20 25 30 35+ Temperature / ° C

Clouds and Precipitation
Forecast for 2018-05-21 00:00 UTC. Updated 3 hours ago

Ground ~20,000 ft ~40,000 ft Winds

MNMG

Details ICAO MNMG (MGA)
Name Managua Intl
Region Nicaragua
Timezone America/Managua (UTC-6.0)
Stats Elevation 194 ft / 59 m (AMSL)
Location 12.141493° -86.168178°
Runways 1
Magnetic Variation 1.007° W

METAR

MNMG 210100Z 10008KT 9999 FEW022CB SCT300 28/25 Q1009 A2982 CB/E NOSIG

Decode

TAF

Not found

Departure Runways

ID Width Length Bearing (true) Bearing (mag) Surface Threshold Offset Overrun Length
09 148 ft / 45 m 8,008 ft / 2,441 m 96.54° 97.55° Asphalt 0 ft / 0 m 100 ft / 30 m
27 148 ft / 45 m 8,008 ft / 2,441 m 276.55° 277.56° Asphalt 0 ft / 0 m 100 ft / 30 m

MGPB

Details ICAO MGPB (PBR)
Name PUERTO BARRIOS
Region Guatemala
Timezone America/Guatemala (UTC-6.0)
Stats Elevation 33 ft / 10 m (AMSL)
Location 15.730872° -88.583765°
Runways 1
Magnetic Variation 0.204° W

METAR

MGPB 210200Z 00000KT 9999 SCT017 27/25 Q1011 A2985

Decode

TAF

MGPB 202300Z 2100/2124 00000KT 9999 SCT016 TX33/2120Z TN24/2112Z PROB30 TEMPO 2100/2104 8000 VCSH FEW025CB BECMG 2115 2117 05008KT FEW018 TEMPO 2120/2124 SCT020 FEW025CB

Decode

Destination Runways

ID Width Length Bearing (true) Bearing (mag) Surface Threshold Offset Overrun Length
12 110 ft / 34 m 8,861 ft / 2,701 m 127.91° 128.11° Concrete 0 ft / 0 m 0 ft / 0 m
30 110 ft / 34 m 8,861 ft / 2,701 m 307.92° 308.12° Concrete 0 ft / 0 m 0 ft / 0 m

Popular Alternatives